Time;durP1;ratioP1;P1;durP2;ratioP2;P2;SDS_P1;SDS_P2;PMS_P1;PMS_P2;Temp;Humidity;BMP_temperature;BMP_pressure;BME280_temperature;BME280_humidity;BME280_pressure;Samples;Min_cycle;Max_cycle;Signal;HPM_P1;HPM_P2
2023/12/07 00:01:23;;;;;;;1.60;1.27;;;;;;;;;;5057742;28;20154;-66
2023/12/07 00:03:49;;;;;;;1.30;1.30;;;;;;;;;;5063025;28;20024;-65
2023/12/07 00:06:15;;;;;;;1.20;1.20;;;;;;;;;;5056603;28;20348;-66
2023/12/07 00:08:41;;;;;;;1.10;1.10;;;;;;;;;;5055659;28;20028;-66
2023/12/07 00:11:08;;;;;;;1.20;1.20;;;;;;;;;;5054304;28;20036;-66
2023/12/07 00:13:34;;;;;;;1.10;1.10;;;;;;;;;;5060053;28;20032;-67
2023/12/07 00:16:00;;;;;;;1.10;1.10;;;;;;;;;;5071957;28;20214;-66
2023/12/07 00:18:28;;;;;;;1.00;1.00;;;;;;;;;;5058642;28;20392;-66
2023/12/07 00:20:55;;;;;;;1.20;1.20;;;;;;;;;;5051306;28;20111;-66
2023/12/07 00:23:21;;;;;;;1.10;1.10;;;;;;;;;;5059327;28;20020;-66
2023/12/07 00:25:47;;;;;;;1.38;1.27;;;;;;;;;;5060477;28;20035;-66
2023/12/07 00:28:14;;;;;;;1.20;1.20;;;;;;;;;;5055148;28;20027;-66
2023/12/07 00:30:42;;;;;;;1.20;1.20;;;;;;;;;;5054015;28;20017;-67
2023/12/07 00:33:09;;;;;;;1.02;1.02;;;;;;;;;;5059231;28;20357;-66
2023/12/07 00:35:35;;;;;;;1.45;1.27;;;;;;;;;;5057024;28;20009;-66
2023/12/07 00:38:02;;;;;;;0.95;0.95;;;;;;;;;;5077061;28;20088;-66
2023/12/07 00:40:39;;;;;;;1.10;1.10;;;;;;;;;;5068488;28;20032;-67
2023/12/07 00:43:05;;;;;;;2.25;1.30;;;;;;;;;;5057389;28;20526;-67
2023/12/07 00:45:31;;;;;;;2.42;1.20;;;;;;;;;;5060231;28;20429;-66
2023/12/07 00:47:58;;;;;;;1.20;1.20;;;;;;;;;;5060993;28;20024;-67
2023/12/07 00:50:24;;;;;;;2.22;1.50;;;;;;;;;;5061194;28;20031;-66
2023/12/07 00:52:50;;;;;;;1.20;1.10;;;;;;;;;;5057339;28;20601;-66
2023/12/07 00:55:16;;;;;;;2.83;1.30;;;;;;;;;;5060838;28;20115;-66
2023/12/07 00:57:43;;;;;;;1.10;1.10;;;;;;;;;;5058257;28;20028;-66
2023/12/07 01:00:10;;;;;;;2.55;1.48;;;;;;;;;;5065411;28;20601;-67
2023/12/07 01:02:36;;;;;;;1.38;1.27;;;;;;;;;;5067958;28;20471;-67
2023/12/07 01:05:03;;;;;;;1.05;1.05;;;;;;;;;;5063776;28;20595;-66
2023/12/07 01:07:29;;;;;;;1.17;1.17;;;;;;;;;;5072574;28;20021;-66
2023/12/07 01:09:55;;;;;;;1.88;1.27;;;;;;;;;;5064215;28;20032;-67
2023/12/07 01:12:21;;;;;;;1.30;1.30;;;;;;;;;;5061486;28;20025;-67
2023/12/07 01:14:47;;;;;;;1.10;1.10;;;;;;;;;;5059585;28;20503;-66
2023/12/07 01:17:14;;;;;;;1.10;1.10;;;;;;;;;;5056099;28;20032;-66
2023/12/07 01:19:40;;;;;;;1.05;1.05;;;;;;;;;;5064932;28;20024;-67
2023/12/07 01:22:06;;;;;;;1.67;1.33;;;;;;;;;;5057036;28;20116;-67
2023/12/07 01:24:32;;;;;;;1.10;1.10;;;;;;;;;;5060398;28;20107;-66
2023/12/07 01:26:58;;;;;;;3.83;1.60;;;;;;;;;;5060182;28;20593;-67
2023/12/07 01:29:25;;;;;;;1.00;1.00;;;;;;;;;;5062584;28;20126;-67
2023/12/07 01:31:51;;;;;;;1.10;1.10;;;;;;;;;;5063930;28;20067;-66
2023/12/07 01:34:18;;;;;;;0.95;0.95;;;;;;;;;;5060352;28;20079;-66
2023/12/07 01:36:45;;;;;;;1.30;1.30;;;;;;;;;;5060060;28;20656;-66
2023/12/07 01:39:12;;;;;;;0.98;0.98;;;;;;;;;;5057220;28;20021;-67
2023/12/07 01:41:39;;;;;;;0.98;0.98;;;;;;;;;;5058022;28;20032;-66
2023/12/07 01:44:05;;;;;;;4.38;1.27;;;;;;;;;;5058270;28;20105;-66
2023/12/07 01:46:33;;;;;;;0.90;0.90;;;;;;;;;;5058981;28;20028;-66
2023/12/07 01:49:00;;;;;;;1.10;1.10;;;;;;;;;;5065633;28;20031;-67
2023/12/07 01:51:26;;;;;;;1.08;1.00;;;;;;;;;;5061951;28;20397;-66
2023/12/07 01:53:52;;;;;;;1.00;1.00;;;;;;;;;;5060333;28;20419;-67
2023/12/07 01:56:20;;;;;;;1.00;1.00;;;;;;;;;;5059371;28;20440;-66
2023/12/07 01:58:46;;;;;;;0.90;0.90;;;;;;;;;;5068364;28;20016;-67
2023/12/07 02:01:12;;;;;;;1.00;1.00;;;;;;;;;;5060038;28;20142;-67
2023/12/07 02:03:41;;;;;;;0.90;0.90;;;;;;;;;;5080023;28;20028;-66
2023/12/07 02:06:11;;;;;;;1.25;1.25;;;;;;;;;;5059540;28;20456;-66
2023/12/07 02:08:41;;;;;;;1.05;1.05;;;;;;;;;;5061516;28;20028;-66
2023/12/07 02:11:08;;;;;;;0.90;0.90;;;;;;;;;;5059418;28;20024;-66
2023/12/07 02:13:35;;;;;;;0.98;0.98;;;;;;;;;;5061427;28;20032;-67
2023/12/07 02:16:05;;;;;;;1.05;1.05;;;;;;;;;;5055795;28;20527;-67
2023/12/07 02:18:41;;;;;;;1.55;1.00;;;;;;;;;;5058875;28;20051;-67
2023/12/07 02:21:16;;;;;;;1.30;1.30;;;;;;;;;;5058711;28;20448;-66
2023/12/07 02:23:43;;;;;;;1.10;1.10;;;;;;;;;;5059956;28;20569;-66
2023/12/07 02:26:11;;;;;;;0.90;0.90;;;;;;;;;;5060794;28;20357;-66
2023/12/07 02:28:37;;;;;;;1.10;1.10;;;;;;;;;;5080711;28;20128;-66
2023/12/07 02:31:03;;;;;;;1.10;1.10;;;;;;;;;;5061220;28;20574;-66
2023/12/07 02:33:30;;;;;;;0.90;0.90;;;;;;;;;;5061279;28;20033;-66
2023/12/07 02:35:56;;;;;;;0.80;0.80;;;;;;;;;;5050525;28;20055;-68
2023/12/07 02:38:26;;;;;;;0.90;0.90;;;;;;;;;;5061420;28;20770;-66
2023/12/07 02:40:54;;;;;;;1.20;1.00;;;;;;;;;;5078531;28;20151;-66
2023/12/07 02:43:21;;;;;;;0.90;0.90;;;;;;;;;;5066325;28;20488;-67
2023/12/07 02:45:48;;;;;;;1.00;1.00;;;;;;;;;;5060313;28;20151;-66
2023/12/07 02:48:14;;;;;;;0.80;0.80;;;;;;;;;;5061868;28;20361;-66
2023/12/07 02:50:40;;;;;;;1.00;1.00;;;;;;;;;;5062241;28;20418;-66
2023/12/07 02:53:07;;;;;;;1.02;1.02;;;;;;;;;;5059542;28;20448;-67
2023/12/07 02:55:33;;;;;;;1.00;1.00;;;;;;;;;;5056533;28;20630;-66
2023/12/07 02:58:00;;;;;;;1.00;1.00;;;;;;;;;;5069220;28;20032;-66
2023/12/07 03:00:26;;;;;;;1.08;1.08;;;;;;;;;;5058506;28;20120;-66
2023/12/07 03:02:52;;;;;;;1.00;1.00;;;;;;;;;;5068336;28;20681;-66
2023/12/07 03:05:20;;;;;;;0.98;0.98;;;;;;;;;;5052772;28;20051;-66
2023/12/07 03:07:46;;;;;;;1.75;1.23;;;;;;;;;;5062624;28;20059;-66
2023/12/07 03:10:13;;;;;;;1.00;1.00;;;;;;;;;;5057571;28;20036;-66
2023/12/07 03:12:39;;;;;;;1.17;1.08;;;;;;;;;;5058200;28;20032;-66
2023/12/07 03:15:06;;;;;;;0.80;0.80;;;;;;;;;;5059170;28;20327;-66
2023/12/07 03:17:32;;;;;;;1.10;1.10;;;;;;;;;;5052179;28;20427;-66
2023/12/07 03:19:58;;;;;;;0.80;0.80;;;;;;;;;;5060786;28;20458;-66
2023/12/07 03:22:24;;;;;;;1.10;1.10;;;;;;;;;;5055232;28;20078;-67
2023/12/07 03:24:51;;;;;;;0.95;0.95;;;;;;;;;;5053290;28;20029;-69
2023/12/07 03:27:18;;;;;;;0.90;0.90;;;;;;;;;;5059386;28;20036;-69
2023/12/07 03:29:44;;;;;;;1.23;1.08;;;;;;;;;;5070174;28;20028;-69
2023/12/07 03:32:10;;;;;;;1.10;1.10;;;;;;;;;;5055892;28;20034;-69
2023/12/07 03:34:36;;;;;;;0.90;0.90;;;;;;;;;;5062335;28;20115;-69
2023/12/07 03:37:03;;;;;;;1.55;1.10;;;;;;;;;;5059055;28;20082;-69
2023/12/07 03:39:31;;;;;;;1.10;1.10;;;;;;;;;;5058718;28;20027;-69
2023/12/07 03:41:57;;;;;;;1.10;1.10;;;;;;;;;;5069303;28;20054;-69
2023/12/07 03:44:26;;;;;;;1.05;1.05;;;;;;;;;;5058533;28;20039;-69
2023/12/07 03:46:52;;;;;;;1.10;1.00;;;;;;;;;;5056279;28;20075;-69
2023/12/07 03:49:18;;;;;;;1.00;1.00;;;;;;;;;;5059054;28;20020;-69
2023/12/07 03:51:44;;;;;;;1.05;1.05;;;;;;;;;;5057708;28;20024;-69
2023/12/07 03:54:10;;;;;;;1.75;1.25;;;;;;;;;;5060129;28;20024;-69
2023/12/07 03:56:37;;;;;;;1.10;1.10;;;;;;;;;;5052916;28;20085;-69
2023/12/07 03:59:03;;;;;;;1.25;1.02;;;;;;;;;;5066806;28;20028;-69
2023/12/07 04:01:30;;;;;;;1.00;1.00;;;;;;;;;;5059221;28;20025;-69
2023/12/07 04:03:57;;;;;;;1.02;1.02;;;;;;;;;;5047281;28;20044;-69
2023/12/07 04:06:23;;;;;;;1.25;1.08;;;;;;;;;;5068545;28;20029;-69
2023/12/07 04:08:49;;;;;;;1.15;1.08;;;;;;;;;;5060951;28;20036;-69
2023/12/07 04:11:16;;;;;;;1.00;1.00;;;;;;;;;;5058368;28;20071;-69
2023/12/07 04:13:43;;;;;;;1.00;1.00;;;;;;;;;;5068324;28;20299;-70
2023/12/07 04:16:09;;;;;;;1.10;1.10;;;;;;;;;;5059808;28;20037;-70
2023/12/07 04:18:35;;;;;;;1.25;1.00;;;;;;;;;;5062064;28;20045;-69
2023/12/07 04:21:02;;;;;;;3.25;1.20;;;;;;;;;;5064713;28;20024;-70
2023/12/07 04:23:28;;;;;;;1.02;1.02;;;;;;;;;;5063919;28;20028;-69
2023/12/07 04:25:55;;;;;;;1.00;1.00;;;;;;;;;;5060066;28;20308;-69
2023/12/07 04:28:21;;;;;;;1.17;1.17;;;;;;;;;;5054713;28;20380;-69
2023/12/07 04:30:50;;;;;;;1.00;1.00;;;;;;;;;;5064363;28;20028;-70
2023/12/07 04:33:16;;;;;;;1.25;1.20;;;;;;;;;;5061793;28;20032;-69
2023/12/07 04:35:42;;;;;;;1.20;1.20;;;;;;;;;;5057755;28;20070;-69
2023/12/07 04:38:08;;;;;;;1.00;1.00;;;;;;;;;;5065178;28;20043;-69
2023/12/07 04:40:34;;;;;;;1.98;1.23;;;;;;;;;;5066193;28;20102;-70
2023/12/07 04:43:01;;;;;;;1.02;1.02;;;;;;;;;;5057832;28;20548;-69
2023/12/07 04:45:30;;;;;;;1.00;1.00;;;;;;;;;;5062467;28;20041;-69
2023/12/07 04:47:57;;;;;;;1.02;1.02;;;;;;;;;;5060894;28;20040;-70
2023/12/07 04:50:23;;;;;;;0.90;0.90;;;;;;;;;;5061754;28;20020;-69
2023/12/07 04:52:50;;;;;;;1.10;1.00;;;;;;;;;;5058105;28;20033;-70
2023/12/07 04:55:16;;;;;;;0.90;0.90;;;;;;;;;;5064234;28;20028;-69
2023/12/07 04:57:42;;;;;;;3.65;1.20;;;;;;;;;;5064266;28;20128;-69
2023/12/07 05:00:13;;;;;;;2.33;1.10;;;;;;;;;;5061679;28;20021;-69
2023/12/07 05:02:39;;;;;;;1.00;1.00;;;;;;;;;;5065138;28;20163;-70
2023/12/07 05:05:06;;;;;;;1.55;1.00;;;;;;;;;;5055141;28;20029;-69
2023/12/07 05:07:41;;;;;;;1.10;1.10;;;;;;;;;;5066350;28;20113;-69
2023/12/07 05:10:08;;;;;;;1.02;1.02;;;;;;;;;;5065228;28;20032;-69
2023/12/07 05:12:35;;;;;;;1.20;1.10;;;;;;;;;;5064064;28;20573;-70
2023/12/07 05:15:04;;;;;;;1.58;1.15;;;;;;;;;;5064274;28;20055;-69
2023/12/07 05:17:30;;;;;;;1.15;1.15;;;;;;;;;;5057155;28;20134;-69
2023/12/07 05:19:56;;;;;;;1.13;1.13;;;;;;;;;;5061767;28;20107;-69
2023/12/07 05:22:23;;;;;;;1.35;1.25;;;;;;;;;;5060703;28;20839;-69
2023/12/07 05:24:50;;;;;;;1.33;1.20;;;;;;;;;;5080262;28;20210;-69
2023/12/07 05:27:16;;;;;;;1.77;1.40;;;;;;;;;;5063850;28;20224;-69
2023/12/07 05:29:42;;;;;;;1.10;1.10;;;;;;;;;;5064052;28;20671;-69
2023/12/07 05:32:09;;;;;;;1.45;1.20;;;;;;;;;;5059929;28;20037;-69
2023/12/07 05:34:35;;;;;;;1.17;1.17;;;;;;;;;;5063507;28;20462;-69
2023/12/07 05:37:02;;;;;;;2.08;0.95;;;;;;;;;;5066389;28;20032;-69
2023/12/07 05:39:28;;;;;;;1.20;1.20;;;;;;;;;;5079660;28;20086;-69
2023/12/07 05:41:54;;;;;;;1.63;1.20;;;;;;;;;;5057332;28;20041;-68
2023/12/07 05:44:22;;;;;;;1.45;1.35;;;;;;;;;;5065121;28;20080;-70
2023/12/07 05:46:48;;;;;;;1.38;1.30;;;;;;;;;;5060614;28;20020;-69
2023/12/07 05:49:15;;;;;;;1.88;1.75;;;;;;;;;;5063282;28;20187;-69
2023/12/07 05:51:41;;;;;;;1.45;1.35;;;;;;;;;;5058194;28;20033;-69
2023/12/07 05:54:07;;;;;;;1.40;1.38;;;;;;;;;;5075128;28;20024;-69
2023/12/07 05:56:34;;;;;;;2.58;1.40;;;;;;;;;;5076150;28;20410;-69
2023/12/07 05:59:00;;;;;;;1.90;1.40;;;;;;;;;;5063721;28;20027;-70
2023/12/07 06:01:26;;;;;;;1.42;1.33;;;;;;;;;;5062815;28;20052;-69
2023/12/07 06:03:52;;;;;;;3.13;1.27;;;;;;;;;;5060327;28;20029;-69
2023/12/07 06:06:21;;;;;;;3.13;1.60;;;;;;;;;;5062825;28;20407;-69
2023/12/07 06:08:47;;;;;;;4.00;1.52;;;;;;;;;;5058555;28;20024;-69
2023/12/07 06:11:13;;;;;;;4.50;1.40;;;;;;;;;;5056770;28;20024;-69
2023/12/07 06:13:39;;;;;;;1.70;1.60;;;;;;;;;;5062091;28;20089;-69
2023/12/07 06:16:05;;;;;;;3.25;1.58;;;;;;;;;;5056457;28;20430;-70
2023/12/07 06:18:32;;;;;;;1.58;1.45;;;;;;;;;;5062022;28;20356;-69
2023/12/07 06:20:58;;;;;;;1.98;1.40;;;;;;;;;;5063140;28;20039;-69
2023/12/07 06:23:24;;;;;;;2.63;1.50;;;;;;;;;;5055998;28;20021;-69
2023/12/07 06:25:50;;;;;;;2.20;1.40;;;;;;;;;;5059476;28;20029;-69
2023/12/07 06:28:16;;;;;;;2.30;1.58;;;;;;;;;;5056696;28;20445;-69
2023/12/07 06:30:43;;;;;;;3.65;1.50;;;;;;;;;;5058447;28;20025;-69
2023/12/07 06:33:09;;;;;;;8.15;2.50;;;;;;;;;;5079507;28;20411;-69
2023/12/07 06:35:35;;;;;;;2.03;1.70;;;;;;;;;;5055211;28;20383;-68
2023/12/07 06:38:02;;;;;;;2.95;1.65;;;;;;;;;;5062578;28;20025;-69
2023/12/07 06:40:28;;;;;;;3.75;1.73;;;;;;;;;;5066997;28;20091;-69
2023/12/07 06:42:54;;;;;;;9.35;2.05;;;;;;;;;;5059877;28;20025;-70
2023/12/07 06:45:20;;;;;;;5.75;1.70;;;;;;;;;;5058167;28;20049;-70
2023/12/07 06:47:46;;;;;;;2.53;2.25;;;;;;;;;;5056629;28;20087;-70
2023/12/07 06:50:13;;;;;;;2.83;2.40;;;;;;;;;;5056713;28;20036;-71
2023/12/07 06:52:39;;;;;;;9.23;2.13;;;;;;;;;;5056235;28;20028;-70
2023/12/07 06:55:06;;;;;;;7.82;2.35;;;;;;;;;;5074090;28;20039;-69
2023/12/07 06:57:33;;;;;;;5.07;1.67;;;;;;;;;;5059751;28;20071;-69
2023/12/07 06:59:59;;;;;;;6.25;2.28;;;;;;;;;;5060634;28;20397;-70
2023/12/07 07:02:25;;;;;;;10.75;2.20;;;;;;;;;;5055276;28;20077;-69
2023/12/07 07:04:51;;;;;;;6.50;2.17;;;;;;;;;;5064452;28;20413;-70
2023/12/07 07:07:18;;;;;;;7.13;2.33;;;;;;;;;;5058426;28;20036;-70
2023/12/07 07:09:45;;;;;;;6.40;2.15;;;;;;;;;;5060257;28;20733;-69
2023/12/07 07:12:14;;;;;;;9.00;2.28;;;;;;;;;;5063758;28;20020;-69
2023/12/07 07:14:40;;;;;;;6.07;2.28;;;;;;;;;;5060033;28;20397;-69
2023/12/07 07:17:07;;;;;;;7.85;1.90;;;;;;;;;;5059740;28;20111;-70
2023/12/07 07:19:33;;;;;;;7.80;2.30;;;;;;;;;;5060017;28;20017;-70
2023/12/07 07:21:59;;;;;;;5.55;2.08;;;;;;;;;;5057896;28;21418;-70
2023/12/07 07:24:26;;;;;;;4.57;2.22;;;;;;;;;;5055427;28;20515;-70
2023/12/07 07:26:52;;;;;;;8.18;2.15;;;;;;;;;;5060439;28;20097;-69
2023/12/07 07:29:18;;;;;;;6.72;2.33;;;;;;;;;;5060200;28;20428;-69
2023/12/07 07:31:45;;;;;;;6.65;2.38;;;;;;;;;;5058135;28;20396;-69
2023/12/07 07:34:12;;;;;;;4.88;1.98;;;;;;;;;;5058339;28;20028;-70
2023/12/07 07:36:38;;;;;;;6.07;2.75;;;;;;;;;;5046550;28;20154;-70
2023/12/07 07:39:07;;;;;;;3.13;1.90;;;;;;;;;;5054709;28;20029;-69
2023/12/07 07:41:33;;;;;;;3.95;1.90;;;;;;;;;;5056650;28;20024;-69
2023/12/07 07:44:00;;;;;;;6.28;2.60;;;;;;;;;;5066625;28;20614;-69
2023/12/07 07:46:26;;;;;;;4.40;2.28;;;;;;;;;;5055495;28;20043;-70
2023/12/07 07:48:52;;;;;;;6.53;2.53;;;;;;;;;;5056332;28;20039;-73
2023/12/07 07:51:19;;;;;;;3.67;2.00;;;;;;;;;;5072690;28;20460;-70
2023/12/07 07:53:45;;;;;;;6.00;2.20;;;;;;;;;;5057285;28;20179;-70
2023/12/07 07:56:11;;;;;;;6.38;2.00;;;;;;;;;;5055736;28;20086;-71
2023/12/07 07:58:38;;;;;;;4.20;1.80;;;;;;;;;;5054293;28;20384;-70
2023/12/07 08:01:04;;;;;;;2.60;2.00;;;;;;;;;;5054148;28;20079;-69
2023/12/07 08:03:31;;;;;;;5.28;2.10;;;;;;;;;;5057218;28;20071;-69
2023/12/07 08:05:57;;;;;;;7.78;2.35;;;;;;;;;;5071950;28;20578;-69
2023/12/07 08:08:26;;;;;;;3.38;1.98;;;;;;;;;;5056776;28;20033;-70
2023/12/07 08:10:52;;;;;;;9.52;1.95;;;;;;;;;;5055079;28;20028;-70
2023/12/07 08:13:18;;;;;;;8.52;2.35;;;;;;;;;;5055194;28;20399;-69
2023/12/07 08:15:45;;;;;;;5.35;2.08;;;;;;;;;;5056181;28;20050;-70
2023/12/07 08:18:11;;;;;;;7.93;2.40;;;;;;;;;;5055745;28;20036;-70
2023/12/07 08:20:37;;;;;;;4.47;2.10;;;;;;;;;;5054956;28;20032;-70
2023/12/07 08:23:04;;;;;;;13.07;2.25;;;;;;;;;;5053243;28;20028;-69
2023/12/07 08:25:31;;;;;;;4.13;1.70;;;;;;;;;;5058242;28;20032;-70
2023/12/07 08:27:58;;;;;;;6.38;2.55;;;;;;;;;;5057350;28;20031;-70
2023/12/07 08:30:24;;;;;;;3.25;1.70;;;;;;;;;;5057391;28;20037;-70
2023/12/07 08:32:50;;;;;;;7.20;2.30;;;;;;;;;;5062934;28;20028;-71
2023/12/07 08:35:17;;;;;;;4.07;2.05;;;;;;;;;;5054269;28;20114;-70
2023/12/07 08:37:43;;;;;;;15.35;3.47;;;;;;;;;;5057093;28;20420;-70
2023/12/07 08:40:11;;;;;;;8.70;2.65;;;;;;;;;;5049248;28;20032;-69
2023/12/07 08:42:37;;;;;;;10.70;2.60;;;;;;;;;;5056369;28;20401;-69
2023/12/07 08:45:03;;;;;;;11.63;2.40;;;;;;;;;;5069359;28;20041;-70
2023/12/07 08:47:31;;;;;;;14.32;3.78;;;;;;;;;;5056107;28;20028;-70
2023/12/07 08:49:57;;;;;;;7.72;2.75;;;;;;;;;;5054675;28;20040;-69
2023/12/07 08:52:24;;;;;;;5.68;2.03;;;;;;;;;;5051037;28;20697;-69
2023/12/07 08:54:50;;;;;;;9.07;2.97;;;;;;;;;;5050956;28;20044;-68
2023/12/07 08:57:18;;;;;;;11.52;2.47;;;;;;;;;;5069117;28;20039;-70
2023/12/07 08:59:44;;;;;;;5.90;2.67;;;;;;;;;;5051916;28;20489;-71
2023/12/07 09:02:11;;;;;;;12.65;3.03;;;;;;;;;;5059965;28;20032;-70
2023/12/07 09:04:39;;;;;;;5.90;2.80;;;;;;;;;;5064052;28;20025;-71
2023/12/07 09:07:05;;;;;;;7.30;2.83;;;;;;;;;;5062913;28;20029;-70
2023/12/07 09:09:32;;;;;;;13.50;4.10;;;;;;;;;;5062014;28;20040;-69
2023/12/07 09:11:58;;;;;;;6.40;2.33;;;;;;;;;;5060868;28;20037;-69
2023/12/07 09:14:26;;;;;;;9.40;2.35;;;;;;;;;;5064384;28;20127;-69
2023/12/07 09:16:54;;;;;;;6.05;2.20;;;;;;;;;;5061034;28;20033;-70
2023/12/07 09:19:20;;;;;;;8.32;3.63;;;;;;;;;;5060463;28;20304;-68
2023/12/07 09:21:46;;;;;;;7.07;3.53;;;;;;;;;;5058508;28;20029;-67
2023/12/07 09:24:13;;;;;;;3.75;2.50;;;;;;;;;;5062461;28;20027;-70
2023/12/07 09:26:39;;;;;;;9.57;2.85;;;;;;;;;;5061068;28;20033;-68
2023/12/07 09:29:05;;;;;;;7.70;2.67;;;;;;;;;;5074703;28;20515;-68
2023/12/07 09:31:31;;;;;;;7.38;3.00;;;;;;;;;;5063131;28;20025;-70
2023/12/07 09:33:58;;;;;;;8.40;2.63;;;;;;;;;;5058220;28;20503;-70
2023/12/07 09:36:26;;;;;;;4.57;2.13;;;;;;;;;;5072712;28;20043;-68
2023/12/07 09:38:53;;;;;;;6.18;1.90;;;;;;;;;;5060871;28;20025;-70
2023/12/07 09:41:20;;;;;;;13.70;2.90;;;;;;;;;;5062306;28;20029;-70
2023/12/07 09:43:46;;;;;;;6.65;2.55;;;;;;;;;;5079886;28;20039;-70
2023/12/07 09:46:14;;;;;;;5.53;2.47;;;;;;;;;;5059344;28;20047;-70
2023/12/07 09:48:44;;;;;;;3.78;2.13;;;;;;;;;;5059148;28;20035;-69
2023/12/07 09:51:11;;;;;;;4.57;1.70;;;;;;;;;;5058664;28;20632;-71
2023/12/07 09:53:39;;;;;;;2.05;1.80;;;;;;;;;;5060389;28;20444;-70
2023/12/07 09:56:14;;;;;;;6.95;1.88;;;;;;;;;;5072328;28;20024;-69
2023/12/07 09:58:42;;;;;;;3.08;1.77;;;;;;;;;;5067370;28;20495;-70
2023/12/07 10:01:09;;;;;;;3.17;1.85;;;;;;;;;;5061399;28;20039;-69
2023/12/07 10:03:35;;;;;;;2.70;1.98;;;;;;;;;;5052929;28;20598;-69
2023/12/07 10:06:01;;;;;;;1.92;1.80;;;;;;;;;;5066523;28;20078;-67
2023/12/07 10:08:31;;;;;;;3.20;1.35;;;;;;;;;;5055018;28;20029;-69
2023/12/07 10:11:05;;;;;;;1.70;1.55;;;;;;;;;;5069000;28;20040;-70
2023/12/07 10:13:32;;;;;;;1.70;1.58;;;;;;;;;;5058780;28;20203;-69
2023/12/07 10:16:19;;;;;;;1.92;1.67;;;;;;;;;;5055781;28;20026;-67
2023/12/07 10:18:45;;;;;;;1.40;1.30;;;;;;;;;;5071140;28;20124;-68
2023/12/07 10:21:11;;;;;;;2.85;1.88;;;;;;;;;;5058913;28;20033;-68
2023/12/07 10:23:38;;;;;;;3.70;2.85;;;;;;;;;;5074424;28;20054;-70
2023/12/07 10:26:06;;;;;;;7.20;4.22;;;;;;;;;;5070845;28;20093;-67
2023/12/07 10:28:34;;;;;;;3.90;2.78;;;;;;;;;;5056258;28;20016;-68
2023/12/07 10:31:01;;;;;;;1.63;1.52;;;;;;;;;;5053004;28;20056;-69
2023/12/07 10:33:27;;;;;;;1.63;1.52;;;;;;;;;;5060380;28;20032;-72
2023/12/07 10:35:53;;;;;;;2.22;2.03;;;;;;;;;;5060359;28;21308;-71
2023/12/07 10:38:19;;;;;;;3.90;2.88;;;;;;;;;;5071899;28;20032;-70
2023/12/07 10:40:47;;;;;;;4.97;2.58;;;;;;;;;;5057810;28;20103;-70
2023/12/07 10:43:15;;;;;;;3.78;2.85;;;;;;;;;;5061397;28;20028;-70
2023/12/07 10:45:43;;;;;;;1.80;1.70;;;;;;;;;;5075566;28;20931;-70
2023/12/07 10:48:10;;;;;;;2.63;2.25;;;;;;;;;;5057848;28;20056;-70
2023/12/07 10:50:44;;;;;;;3.67;2.05;;;;;;;;;;5067115;28;20036;-70
2023/12/07 10:53:31;;;;;;;4.35;2.80;;;;;;;;;;5055907;28;20024;-69
2023/12/07 10:56:05;;;;;;;3.40;2.65;;;;;;;;;;5056449;28;20036;-69
2023/12/07 10:58:34;;;;;;;3.55;2.35;;;;;;;;;;5060264;28;20036;-69
2023/12/07 11:01:01;;;;;;;2.67;1.92;;;;;;;;;;5073031;28;20021;-69
2023/12/07 11:03:29;;;;;;;2.17;1.60;;;;;;;;;;5056307;28;20594;-70
2023/12/07 11:05:56;;;;;;;4.03;2.92;;;;;;;;;;5058733;28;20047;-71
2023/12/07 11:08:25;;;;;;;5.07;3.05;;;;;;;;;;5060445;28;20055;-70
2023/12/07 11:11:12;;;;;;;2.10;1.90;;;;;;;;;;5057540;28;20059;-71
2023/12/07 11:13:39;;;;;;;3.88;1.70;;;;;;;;;;5074071;28;20377;-70
2023/12/07 11:16:05;;;;;;;3.33;1.70;;;;;;;;;;5059563;28;20040;-70
2023/12/07 11:18:33;;;;;;;4.10;2.25;;;;;;;;;;5074650;28;20492;-72
2023/12/07 11:21:00;;;;;;;1.98;1.48;;;;;;;;;;5072017;28;20033;-69
2023/12/07 11:23:29;;;;;;;1.38;1.30;;;;;;;;;;5060040;28;20500;-70
2023/12/07 11:25:55;;;;;;;1.73;1.63;;;;;;;;;;5074979;28;20025;-70
2023/12/07 11:28:34;;;;;;;1.35;1.30;;;;;;;;;;5068333;28;20029;-70
2023/12/07 11:31:03;;;;;;;4.35;1.63;;;;;;;;;;5053333;28;20032;-70
2023/12/07 11:33:30;;;;;;;1.90;1.80;;;;;;;;;;5050706;28;20116;-69
2023/12/07 11:36:03;;;;;;;5.55;1.50;;;;;;;;;;5053137;28;20032;-69
2023/12/07 11:38:30;;;;;;;1.60;1.50;;;;;;;;;;5055290;28;20032;-70
2023/12/07 11:40:57;;;;;;;4.18;1.90;;;;;;;;;;5061805;28;20032;-69
2023/12/07 11:43:32;;;;;;;1.80;1.63;;;;;;;;;;5072683;28;20056;-69
2023/12/07 11:45:59;;;;;;;2.58;1.42;;;;;;;;;;5052514;28;20649;-69
2023/12/07 11:48:26;;;;;;;2.33;1.40;;;;;;;;;;5063909;28;20036;-69
2023/12/07 11:50:59;;;;;;;3.47;1.60;;;;;;;;;;5062748;28;20523;-68
2023/12/07 11:53:26;;;;;;;1.20;1.20;;;;;;;;;;5052370;28;20027;-69
2023/12/07 11:55:52;;;;;;;2.55;1.55;;;;;;;;;;5075094;28;20029;-68
2023/12/07 11:58:18;;;;;;;3.35;1.80;;;;;;;;;;5057510;28;20042;-69
2023/12/07 12:00:48;;;;;;;7.10;1.95;;;;;;;;;;5055608;28;20127;-68
2023/12/07 12:03:15;;;;;;;1.83;1.52;;;;;;;;;;5058193;28;20024;-69
2023/12/07 12:05:43;;;;;;;1.95;1.70;;;;;;;;;;5054985;28;20421;-71
2023/12/07 12:08:10;;;;;;;3.80;1.80;;;;;;;;;;5057926;28;20032;-68
2023/12/07 12:10:36;;;;;;;10.68;2.10;;;;;;;;;;5056778;28;20554;-68
2023/12/07 12:13:03;;;;;;;4.90;2.28;;;;;;;;;;5057629;28;20025;-66
2023/12/07 12:15:30;;;;;;;8.90;2.90;;;;;;;;;;5055925;28;20483;-68
2023/12/07 12:17:56;;;;;;;6.40;3.70;;;;;;;;;;5056727;28;20029;-68
2023/12/07 12:20:26;;;;;;;4.80;2.88;;;;;;;;;;5053240;28;20036;-68
2023/12/07 12:22:53;;;;;;;4.57;3.35;;;;;;;;;;5056125;28;20040;-69
2023/12/07 12:25:25;;;;;;;1.65;1.55;;;;;;;;;;5053935;28;20025;-69
2023/12/07 12:27:53;;;;;;;3.75;1.58;;;;;;;;;;5069515;28;20497;-70
2023/12/07 12:30:19;;;;;;;1.85;1.50;;;;;;;;;;5049954;28;20037;-68
2023/12/07 12:32:46;;;;;;;1.50;1.25;;;;;;;;;;5053927;28;20048;-71
2023/12/07 12:35:14;;;;;;;1.60;1.50;;;;;;;;;;5055094;28;20390;-70
2023/12/07 12:37:42;;;;;;;1.52;1.52;;;;;;;;;;5056057;28;20056;-70
2023/12/07 12:40:09;;;;;;;2.30;1.75;;;;;;;;;;5073171;28;20025;-69
2023/12/07 12:42:37;;;;;;;3.42;1.20;;;;;;;;;;5076318;28;20088;-70
2023/12/07 12:45:05;;;;;;;1.90;1.50;;;;;;;;;;5059039;28;20438;-69
2023/12/07 12:47:31;;;;;;;4.55;1.60;;;;;;;;;;5069694;28;20385;-70
2023/12/07 12:49:59;;;;;;;1.50;1.33;;;;;;;;;;5062086;28;20028;-67
2023/12/07 12:52:26;;;;;;;2.55;1.20;;;;;;;;;;5070981;28;20024;-68
2023/12/07 12:54:52;;;;;;;0.90;0.90;;;;;;;;;;5057475;28;20028;-67
2023/12/07 12:57:19;;;;;;;2.63;1.30;;;;;;;;;;5064625;28;20060;-70
2023/12/07 12:59:46;;;;;;;1.33;1.23;;;;;;;;;;5064876;28;20029;-71
2023/12/07 13:02:12;;;;;;;1.27;1.20;;;;;;;;;;5059971;28;20388;-71
2023/12/07 13:04:38;;;;;;;1.60;1.20;;;;;;;;;;5070192;28;20064;-71
2023/12/07 13:07:12;;;;;;;2.53;1.42;;;;;;;;;;5057720;28;20047;-71
2023/12/07 13:09:41;;;;;;;1.15;1.13;;;;;;;;;;5060606;28;20407;-72
2023/12/07 13:12:07;;;;;;;1.40;1.30;;;;;;;;;;5070802;28;20834;-73
2023/12/07 13:14:35;;;;;;;4.28;1.70;;;;;;;;;;5070667;28;20043;-72
2023/12/07 13:17:03;;;;;;;1.52;1.40;;;;;;;;;;5060027;28;20387;-72
2023/12/07 13:19:30;;;;;;;3.05;1.73;;;;;;;;;;5075029;28;20064;-72
2023/12/07 13:21:56;;;;;;;6.03;1.83;;;;;;;;;;5074475;28;20024;-73
2023/12/07 13:24:22;;;;;;;6.80;1.70;;;;;;;;;;5057791;28;20392;-73
2023/12/07 13:26:48;;;;;;;1.55;1.45;;;;;;;;;;5075788;28;20040;-72
2023/12/07 13:29:15;;;;;;;3.92;1.48;;;;;;;;;;5071985;28;20029;-72
2023/12/07 13:31:41;;;;;;;2.30;2.03;;;;;;;;;;5055753;28;20400;-73
2023/12/07 13:34:07;;;;;;;3.20;1.80;;;;;;;;;;5057902;28;20636;-72
2023/12/07 13:36:35;;;;;;;2.00;1.80;;;;;;;;;;5073999;28;20154;-72
2023/12/07 13:39:04;;;;;;;2.95;1.38;;;;;;;;;;5059322;28;20492;-73
2023/12/07 13:41:31;;;;;;;2.03;1.48;;;;;;;;;;5059677;28;20025;-74
2023/12/07 13:43:57;;;;;;;6.55;2.03;;;;;;;;;;5071228;28;20035;-73
2023/12/07 13:46:24;;;;;;;2.15;1.70;;;;;;;;;;5058913;28;20036;-73
2023/12/07 13:48:50;;;;;;;1.70;1.60;;;;;;;;;;5058100;28;20063;-73
2023/12/07 13:51:18;;;;;;;3.78;1.80;;;;;;;;;;5056056;28;20274;-73
2023/12/07 13:53:45;;;;;;;6.63;2.55;;;;;;;;;;5068869;28;20016;-73
2023/12/07 13:56:11;;;;;;;5.13;1.77;;;;;;;;;;5069284;28;20025;-70
2023/12/07 13:58:39;;;;;;;4.32;2.20;;;;;;;;;;5055686;28;20037;-70
2023/12/07 14:01:05;;;;;;;6.47;2.53;;;;;;;;;;5054706;28;20037;-69
2023/12/07 14:03:31;;;;;;;6.85;2.88;;;;;;;;;;5059385;28;20498;-70
2023/12/07 14:05:58;;;;;;;7.85;3.30;;;;;;;;;;5057261;28;20024;-71
2023/12/07 14:08:26;;;;;;;7.32;2.80;;;;;;;;;;5053727;28;20036;-71
2023/12/07 14:10:52;;;;;;;6.30;2.60;;;;;;;;;;5057274;28;20071;-70
2023/12/07 14:13:18;;;;;;;8.27;2.42;;;;;;;;;;5067635;28;20036;-69
2023/12/07 14:15:44;;;;;;;7.85;2.40;;;;;;;;;;5057967;28;20037;-69
2023/12/07 14:18:10;;;;;;;5.97;2.42;;;;;;;;;;5064292;28;20028;-69
2023/12/07 14:20:37;;;;;;;3.75;2.10;;;;;;;;;;5060617;28;20013;-71
2023/12/07 14:23:05;;;;;;;10.85;2.20;;;;;;;;;;5055965;28;20400;-71
2023/12/07 14:25:31;;;;;;;9.55;2.50;;;;;;;;;;5060875;28;20484;-68
2023/12/07 14:28:01;;;;;;;3.50;2.00;;;;;;;;;;5061204;28;20025;-68
2023/12/07 14:30:27;;;;;;;6.03;2.45;;;;;;;;;;5057974;28;20040;-67
2023/12/07 14:32:54;;;;;;;2.53;2.00;;;;;;;;;;5059228;28;20116;-67
2023/12/07 14:35:21;;;;;;;4.45;2.13;;;;;;;;;;5058922;28;20443;-68
2023/12/07 14:37:48;;;;;;;5.18;1.92;;;;;;;;;;5059734;28;20135;-68
2023/12/07 14:40:18;;;;;;;5.82;2.28;;;;;;;;;;5057309;28;20020;-71
2023/12/07 14:42:45;;;;;;;7.05;2.67;;;;;;;;;;5072543;28;20098;-69